createdAt,value
2018-04-23T00:05:29.457Z,15.7
2018-04-23T00:15:28.673Z,15.7
2018-04-23T00:25:27.840Z,15.8
2018-04-23T00:35:27.043Z,15.8
2018-04-23T00:45:26.256Z,15.8
2018-04-23T00:55:25.466Z,15.8
2018-04-23T01:05:24.679Z,15.8
2018-04-23T01:15:23.900Z,15.9
2018-04-23T01:25:23.109Z,15.9
2018-04-23T01:35:22.313Z,15.9
2018-04-23T01:45:21.578Z,15.9
2018-04-23T01:55:20.791Z,16
2018-04-23T02:05:19.948Z,16
2018-04-23T02:15:19.167Z,16
2018-04-23T02:25:18.421Z,16.1
2018-04-23T02:35:17.637Z,16.1
2018-04-23T02:45:16.800Z,16
2018-04-23T02:55:16.011Z,15.4
2018-04-23T03:05:15.227Z,15.5
2018-04-23T03:15:14.427Z,15.5
2018-04-23T03:25:13.637Z,15.5
2018-04-23T03:35:12.850Z,15.5
2018-04-23T03:45:12.077Z,15.6
2018-04-23T03:55:11.279Z,15.6
2018-04-23T04:05:10.530Z,15.5
2018-04-23T04:15:09.691Z,15.5
2018-04-23T04:25:08.908Z,15.4
2018-04-23T04:35:08.118Z,15.5
2018-04-23T04:45:07.329Z,15.5
2018-04-23T04:55:06.580Z,15.6
2018-04-23T05:05:05.740Z,15.7
2018-04-23T05:15:05.008Z,15.8
2018-04-23T05:25:04.173Z,15.9
2018-04-23T05:35:03.380Z,16.1
2018-04-23T05:45:02.590Z,16.4
2018-04-23T05:55:01.845Z,16.6
2018-04-23T06:05:01.054Z,16.9
2018-04-23T06:15:00.212Z,17.3
2018-04-23T06:24:59.421Z,17.7
2018-04-23T06:34:58.644Z,18.1
2018-04-23T06:44:57.841Z,18.5
2018-04-23T06:54:57.061Z,19
2018-04-23T07:04:56.295Z,19.5
2018-04-23T07:14:55.473Z,20.1
2018-04-23T07:24:54.693Z,20.7
2018-04-23T07:34:53.997Z,21.4
2018-04-23T07:44:53.158Z,22.1
2018-04-23T07:54:52.325Z,22.8
2018-04-23T08:04:51.530Z,23.6
2018-04-23T08:14:50.739Z,24.4
2018-04-23T08:24:49.960Z,25.2
2018-04-23T08:34:49.180Z,26.1
2018-04-23T08:44:48.440Z,26.9
2018-04-23T08:54:47.590Z,27.7
2018-04-23T09:04:46.799Z,28.5
2018-04-23T09:14:46.014Z,29.4
2018-04-23T09:24:45.290Z,30.2
2018-04-23T09:34:44.443Z,31
2018-04-23T09:44:43.677Z,31.8
2018-04-23T09:54:42.908Z,32.7
2018-04-23T10:04:42.072Z,33.1
2018-04-23T10:14:41.343Z,34.1
2018-04-23T10:24:40.510Z,34.9
2018-04-23T10:34:39.721Z,35.5
2018-04-23T10:44:38.926Z,36.3
2018-04-23T10:54:38.193Z,37.1
2018-04-23T11:04:37.361Z,37.9
2018-04-23T11:14:36.563Z,38.8
2018-04-23T11:24:35.775Z,39.6
2018-04-23T11:34:34.987Z,40.4
2018-04-23T11:44:34.249Z,41.3
2018-04-23T11:54:33.421Z,42.1
2018-04-23T12:04:32.731Z,42.9
2018-04-23T12:14:31.886Z,43.7
2018-04-23T12:24:31.049Z,44.5
2018-04-23T12:34:30.325Z,45.3
2018-04-23T12:44:29.539Z,46.1
2018-04-23T12:54:28.737Z,46.8
2018-04-23T13:04:27.970Z,47.6
2018-04-23T13:14:27.111Z,48.3
2018-04-23T13:24:26.324Z,49.1
2018-04-23T13:34:25.539Z,49.7
2018-04-23T13:44:24.748Z,50.4
2018-04-23T13:54:23.975Z,51.2
2018-04-23T14:04:23.188Z,51.8
2018-04-23T14:14:22.384Z,52.3
2018-04-23T14:24:21.596Z,53
2018-04-23T14:34:20.864Z,53.6
2018-04-23T14:44:20.084Z,54.1
2018-04-23T14:54:19.231Z,54.5
2018-04-23T15:04:18.442Z,54.9
2018-04-23T15:14:17.653Z,55.1
2018-04-23T15:24:16.868Z,55.2
2018-04-23T15:34:16.135Z,55.1
2018-04-23T15:44:15.339Z,55.1
2018-04-23T15:54:14.518Z,55.1
2018-04-23T16:04:13.714Z,54.5
2018-04-23T16:14:12.929Z,54.2
2018-04-23T16:24:12.146Z,52.8
2018-04-23T16:34:11.409Z,50.8
2018-04-23T16:44:10.577Z,49.6
2018-04-23T16:54:09.792Z,49.3
2018-04-23T17:04:08.997Z,49.1
2018-04-23T17:14:08.270Z,47.1
2018-04-23T17:24:07.443Z,47.4
2018-04-23T17:34:06.641Z,45.4
2018-04-23T17:44:05.865Z,44.4
2018-04-23T17:54:05.083Z,44.4
2018-04-23T18:04:04.287Z,44.4
2018-04-23T18:14:03.502Z,44.5
2018-04-23T18:24:02.775Z,44.4
2018-04-23T18:34:01.940Z,44.4
2018-04-23T18:44:01.154Z,42.8
2018-04-23T18:54:00.361Z,43.1
2018-04-23T19:03:59.577Z,43.1
2018-04-23T19:13:58.853Z,43.1
2018-04-23T19:23:58.008Z,41.7
2018-04-23T19:33:57.233Z,41.1
2018-04-23T19:43:56.451Z,41.1
2018-04-23T19:53:55.715Z,41.3
2018-04-23T20:03:54.871Z,41.3
2018-04-23T20:13:54.087Z,41.3
2018-04-23T20:23:53.350Z,41.3
2018-04-23T20:33:52.527Z,41.4
2018-04-23T20:43:51.778Z,41.4
2018-04-23T20:53:50.943Z,41.3
2018-04-23T21:03:50.155Z,41.4
2018-04-23T21:13:49.371Z,41.4
2018-04-23T21:23:48.592Z,41.4
2018-04-23T21:33:47.861Z,41.4
2018-04-23T21:43:47.019Z,41.4
2018-04-23T21:53:46.223Z,41.4
2018-04-23T22:03:45.453Z,41.4
2018-04-23T22:13:44.669Z,41.4
2018-04-23T22:23:43.873Z,41.4
2018-04-23T22:33:43.125Z,41.4
2018-04-23T22:43:42.296Z,41.4
2018-04-23T22:53:41.501Z,41.4
2018-04-23T23:03:40.765Z,41.4
2018-04-23T23:13:39.943Z,41.4
2018-04-23T23:23:39.148Z,41.4
2018-04-23T23:33:38.412Z,41.4
2018-04-23T23:43:37.565Z,41.3
2018-04-23T23:53:36.781Z,41.3
